Time,TemperatureF,DewpointF,PressureIn,WindDirection,WindDirectionDegrees,WindSpeedMPH,WindSpeedGustMPH,Humidity,HourlyPrecipIn,Conditions,Clouds,dailyrainin,SoftwareType,DateUTC
2013-03-11 00:00:00,38.5,37.2,30.27,ESE,104,0.0,0.0,95,0.00,,---,0.00,VWS V14.01,2013-03-11 04:00:00,
2013-03-11 00:05:00,38.3,36.7,30.27,ESE,104,0.0,0.0,94,0.00,,---,0.00,VWS V14.01,2013-03-11 04:05:00,
2013-03-11 00:10:00,38.1,36.5,30.27,ESE,104,0.0,0.0,94,0.00,,---,0.00,VWS V14.01,2013-03-11 04:10:00,
2013-03-11 00:15:00,37.9,36.3,30.27,ESE,104,0.0,0.0,94,0.00,,---,0.00,VWS V14.01,2013-03-11 04:15:00,
2013-03-11 00:20:00,37.6,36.0,30.27,ESE,104,0.0,0.0,94,0.00,,---,0.00,VWS V14.01,2013-03-11 04:20:00,
2013-03-11 00:25:00,37.4,35.8,30.27,ESE,104,0.0,0.0,94,0.00,,---,0.00,VWS V14.01,2013-03-11 04:25:00,
2013-03-11 00:30:00,37.1,35.5,30.27,ESE,104,0.0,0.0,94,0.00,,---,0.00,VWS V14.01,2013-03-11 04:30:00,
2013-03-11 00:35:00,36.9,35.3,30.27,ESE,104,0.0,0.0,94,0.00,,---,0.00,VWS V14.01,2013-03-11 04:35:00,
2013-03-11 00:40:00,36.8,35.2,30.27,ESE,104,0.0,0.0,94,0.00,,---,0.00,VWS V14.01,2013-03-11 04:40:00,
2013-03-11 00:45:00,36.6,35.0,30.26,ESE,104,0.0,0.0,94,0.00,,---,0.00,VWS V14.01,2013-03-11 04:45:00,
2013-03-11 00:50:00,36.5,34.9,30.27,ESE,104,0.0,0.0,94,0.00,,---,0.00,VWS V14.01,2013-03-11 04:50:00,
2013-03-11 00:55:00,36.4,34.8,30.26,ESE,104,0.0,0.0,94,0.00,,---,0.00,VWS V14.01,2013-03-11 04:55:00,
2013-03-11 01:00:00,36.4,34.8,30.26,ESE,104,0.0,0.0,94,0.00,,---,0.00,VWS V14.01,2013-03-11 05:00:00,
2013-03-11 01:05:00,36.4,35.1,30.26,ESE,104,0.0,0.0,95,0.00,,---,0.00,VWS V14.01,2013-03-11 05:05:00,
2013-03-11 01:10:00,36.3,35.0,30.26,ESE,104,0.0,0.0,95,0.00,,---,0.00,VWS V14.01,2013-03-11 05:10:00,
2013-03-11 01:15:00,36.3,35.0,30.25,ESE,104,0.0,0.0,95,0.00,,---,0.00,VWS V14.01,2013-03-11 05:15:00,
2013-03-11 01:20:00,36.2,34.9,30.25,ESE,104,0.0,0.0,95,0.00,,---,0.00,VWS V14.01,2013-03-11 05:20:00,
2013-03-11 01:25:00,36.2,34.9,30.24,ESE,104,0.0,0.0,95,0.00,,---,0.00,VWS V14.01,2013-03-11 05:25:00,
2013-03-11 01:30:00,36.1,34.8,30.24,ESE,104,0.0,0.0,95,0.00,,---,0.00,VWS V14.01,2013-03-11 05:30:00,
2013-03-11 01:35:00,36.2,34.9,30.24,ESE,104,0.0,0.0,95,0.00,,---,0.00,VWS V14.01,2013-03-11 05:35:00,
2013-03-11 01:40:00,36.6,35.6,30.24,ESE,116,1.0,1.0,96,0.00,,---,0.00,VWS V14.01,2013-03-11 05:40:00,
2013-03-11 01:45:00,37.2,36.2,30.24,ESE,116,0.0,1.0,96,0.00,,---,0.00,VWS V14.01,2013-03-11 05:45:00,
2013-03-11 01:50:00,37.7,36.7,30.25,ESE,116,0.0,1.0,96,0.00,,---,0.00,VWS V14.01,2013-03-11 05:50:00,
2013-03-11 01:55:00,38.1,37.1,30.25,ESE,116,0.0,1.0,96,0.00,,---,0.00,VWS V14.01,2013-03-11 05:55:00,
2013-03-11 02:00:00,38.1,37.1,30.25,ESE,116,0.0,0.0,96,0.00,,---,0.00,VWS V14.01,2013-03-11 06:00:00,
2013-03-11 02:05:00,38.2,37.2,30.25,ESE,117,0.0,1.0,96,0.00,,---,0.00,VWS V14.01,2013-03-11 06:05:00,
2013-03-11 02:10:00,38.2,37.2,30.24,ESE,117,0.0,1.0,96,0.00,,---,0.00,VWS V14.01,2013-03-11 06:10:00,
2013-03-11 02:15:00,38.2,37.2,30.24,ESE,117,0.0,1.0,96,0.00,,---,0.00,VWS V14.01,2013-03-11 06:15:00,
2013-03-11 02:20:00,38.0,37.0,30.24,ESE,117,0.0,1.0,96,0.00,,---,0.00,VWS V14.01,2013-03-11 06:20:00,
2013-03-11 02:25:00,37.9,36.9,30.24,ESE,117,0.0,1.0,96,0.00,,---,0.00,VWS V14.01,2013-03-11 06:25:00,
2013-03-11 02:30:00,37.8,36.8,30.24,ESE,117,0.0,0.0,96,0.00,,---,0.00,VWS V14.01,2013-03-11 06:30:00,
2013-03-11 02:35:00,37.7,36.7,30.24,ESE,117,0.0,0.0,96,0.00,,---,0.00,VWS V14.01,2013-03-11 06:35:00,
2013-03-11 02:40:00,37.6,36.6,30.24,ESE,117,0.0,0.0,96,0.00,,---,0.00,VWS V14.01,2013-03-11 06:40:00,
2013-03-11 02:45:00,37.4,36.1,30.24,ESE,117,0.0,0.0,95,0.00,,---,0.00,VWS V14.01,2013-03-11 06:45:00,
2013-03-11 02:50:00,37.2,35.9,30.24,ESE,117,0.0,0.0,95,0.00,,---,0.00,VWS V14.01,2013-03-11 06:50:00,
2013-03-11 02:55:00,37.0,35.7,30.23,ESE,117,0.0,0.0,95,0.00,,---,0.00,VWS V14.01,2013-03-11 06:55:00,
2013-03-11 03:00:00,36.8,35.5,30.23,ESE,117,0.0,0.0,95,0.00,,---,0.00,VWS V14.01,2013-03-11 07:00:00,
2013-03-11 03:05:00,36.6,35.3,30.23,ESE,117,0.0,0.0,95,0.00,,---,0.00,VWS V14.01,2013-03-11 07:05:00,
2013-03-11 03:10:00,36.5,35.2,30.23,ESE,117,0.0,0.0,95,0.00,,---,0.00,VWS V14.01,2013-03-11 07:10:00,
2013-03-11 03:15:00,36.5,35.2,30.23,ESE,117,0.0,0.0,95,0.00,,---,0.00,VWS V14.01,2013-03-11 07:15:00,
2013-03-11 03:20:00,36.4,35.1,30.23,ESE,117,0.0,0.0,95,0.00,,---,0.00,VWS V14.01,2013-03-11 07:20:00,
2013-03-11 03:25:00,36.2,34.9,30.23,ESE,117,0.0,0.0,95,0.00,,---,0.00,VWS V14.01,2013-03-11 07:25:00,
2013-03-11 03:30:00,36.2,34.9,30.23,ESE,117,0.0,0.0,95,0.00,,---,0.00,VWS V14.01,2013-03-11 07:30:00,
2013-03-11 03:35:00,36.0,34.7,30.23,ESE,117,0.0,0.0,95,0.00,,---,0.00,VWS V14.01,2013-03-11 07:35:00,
2013-03-11 03:40:00,35.8,34.5,30.22,ESE,117,0.0,0.0,95,0.00,,---,0.00,VWS V14.01,2013-03-11 07:40:00,
2013-03-11 03:45:00,35.7,34.4,30.22,ESE,117,0.0,0.0,95,0.00,,---,0.00,VWS V14.01,2013-03-11 07:45:00,
2013-03-11 03:50:00,35.5,34.2,30.22,ESE,117,0.0,0.0,95,0.00,,---,0.00,VWS V14.01,2013-03-11 07:50:00,
2013-03-11 03:55:00,35.3,34.0,30.22,ESE,117,0.0,0.0,95,0.00,,---,0.00,VWS V14.01,2013-03-11 07:55:00,
2013-03-11 04:00:00,35.1,33.8,30.22,ESE,117,0.0,0.0,95,0.00,,---,0.00,VWS V14.01,2013-03-11 08:00:00,
2013-03-11 04:05:00,34.9,33.6,30.21,ESE,117,0.0,0.0,95,0.00,,---,0.00,VWS V14.01,2013-03-11 08:05:00,
2013-03-11 04:10:00,34.8,33.5,30.21,ESE,117,0.0,0.0,95,0.00,,---,0.00,VWS V14.01,2013-03-11 08:10:00,
2013-03-11 04:15:00,34.8,33.5,30.21,ESE,117,0.0,0.0,95,0.00,,---,0.00,VWS V14.01,2013-03-11 08:15:00,
2013-03-11 04:20:00,34.7,33.4,30.21,ESE,117,0.0,0.0,95,0.00,,---,0.00,VWS V14.01,2013-03-11 08:20:00,
2013-03-11 04:25:00,34.7,33.4,30.21,ESE,117,0.0,0.0,95,0.00,,---,0.00,VWS V14.01,2013-03-11 08:25:00,
2013-03-11 04:30:00,34.6,33.3,30.20,ESE,117,0.0,0.0,95,0.00,,---,0.00,VWS V14.01,2013-03-11 08:30:00,
2013-03-11 04:34:00,34.5,33.2,30.21,ESE,117,0.0,0.0,95,0.00,,---,0.00,VWS V14.01,2013-03-11 08:34:00,
2013-03-11 04:39:00,34.4,33.1,30.21,ESE,117,0.0,0.0,95,0.00,,---,0.00,VWS V14.01,2013-03-11 08:39:00,
2013-03-11 04:44:00,34.4,33.1,30.21,ESE,117,0.0,0.0,95,0.00,,---,0.00,VWS V14.01,2013-03-11 08:44:00,
2013-03-11 04:49:00,34.3,33.0,30.21,ESE,117,0.0,0.0,95,0.00,,---,0.00,VWS V14.01,2013-03-11 08:49:00,
2013-03-11 04:54:00,34.2,32.9,30.21,ESE,117,0.0,0.0,95,0.00,,---,0.00,VWS V14.01,2013-03-11 08:54:00,
2013-03-11 04:59:00,34.1,32.8,30.21,ESE,117,0.0,0.0,95,0.00,,---,0.00,VWS V14.01,2013-03-11 08:59:00,
2013-03-11 05:00:00,35.1,33.8,30.22,ESE,117,0.0,0.0,95,0.00,,---,0.00,VWS V14.01,2013-03-11 09:00:00,
2013-03-11 05:04:00,34.1,32.8,30.21,ESE,117,0.0,0.0,95,0.00,,---,0.00,VWS V14.01,2013-03-11 09:04:00,
2013-03-11 05:09:00,34.1,33.1,30.21,ESE,117,0.0,0.0,96,0.00,,---,0.00,VWS V14.01,2013-03-11 09:09:00,
2013-03-11 05:14:00,34.0,32.7,30.21,ESE,117,0.0,0.0,95,0.00,,---,0.00,VWS V14.01,2013-03-11 09:14:00,
2013-03-11 05:19:00,33.9,32.6,30.22,ESE,117,0.0,0.0,95,0.00,,---,0.00,VWS V14.01,2013-03-11 09:19:00,
2013-03-11 05:24:00,33.9,32.6,30.21,ESE,117,0.0,0.0,95,0.00,,---,0.00,VWS V14.01,2013-03-11 09:24:00,
2013-03-11 05:29:00,33.8,32.5,30.21,ESE,117,0.0,0.0,95,0.00,,---,0.00,VWS V14.01,2013-03-11 09:29:00,
2013-03-11 05:30:00,34.6,33.3,30.20,ESE,117,0.0,0.0,95,0.00,,---,0.00,VWS V14.01,2013-03-11 09:30:00,
2013-03-11 05:34:00,33.7,32.4,30.21,ESE,117,0.0,0.0,95,0.00,,---,0.00,VWS V14.01,2013-03-11 09:34:00,
2013-03-11 05:39:00,33.6,32.3,30.21,ESE,117,0.0,0.0,95,0.00,,---,0.00,VWS V14.01,2013-03-11 09:39:00,
2013-03-11 05:44:00,33.5,32.5,30.21,ESE,117,0.0,0.0,96,0.00,,---,0.00,VWS V14.01,2013-03-11 09:44:00,
2013-03-11 05:49:00,33.5,32.2,30.21,ESE,117,0.0,0.0,95,0.00,,---,0.00,VWS V14.01,2013-03-11 09:49:00,
2013-03-11 05:54:00,33.4,32.1,30.20,ESE,117,0.0,0.0,95,0.00,,---,0.00,VWS V14.01,2013-03-11 09:54:00,
2013-03-11 05:59:00,33.4,32.1,30.20,ESE,117,0.0,0.0,95,0.00,,---,0.00,VWS V14.01,2013-03-11 09:59:00,
2013-03-11 06:00:00,34.1,32.8,30.21,ESE,117,0.0,0.0,95,0.00,,---,0.00,VWS V14.01,2013-03-11 10:00:00,
2013-03-11 06:04:00,33.4,32.4,30.20,ESE,117,0.0,0.0,96,0.00,,---,0.00,VWS V14.01,2013-03-11 10:04:00,
2013-03-11 06:09:00,33.4,32.4,30.20,ESE,117,0.0,0.0,96,0.00,,---,0.00,VWS V14.01,2013-03-11 10:09:00,
2013-03-11 06:14:00,33.5,32.5,30.20,ESE,117,0.0,0.0,96,0.00,,---,0.00,VWS V14.01,2013-03-11 10:14:00,
2013-03-11 06:19:00,33.5,32.5,30.20,ESE,117,0.0,0.0,96,0.00,,---,0.00,VWS V14.01,2013-03-11 10:19:00,
2013-03-11 06:24:00,33.6,32.6,30.19,ESE,117,0.0,0.0,96,0.00,,---,0.00,VWS V14.01,2013-03-11 10:24:00,
2013-03-11 06:29:00,33.8,32.8,30.19,ESE,117,0.0,0.0,96,0.00,,---,0.00,VWS V14.01,2013-03-11 10:29:00,
2013-03-11 06:30:00,33.8,32.5,30.21,ESE,117,0.0,0.0,95,0.00,,---,0.00,VWS V14.01,2013-03-11 10:30:00,
2013-03-11 06:34:00,33.8,32.8,30.20,ESE,117,0.0,0.0,96,0.00,,---,0.00,VWS V14.01,2013-03-11 10:34:00,
2013-03-11 06:39:00,33.8,32.8,30.19,ESE,117,0.0,0.0,96,0.00,,---,0.00,VWS V14.01,2013-03-11 10:39:00,
2013-03-11 06:44:00,33.9,32.9,30.19,ESE,117,0.0,0.0,96,0.00,,---,0.00,VWS V14.01,2013-03-11 10:44:00,
2013-03-11 06:49:00,33.9,32.9,30.19,ESE,117,0.0,0.0,96,0.00,,---,0.00,VWS V14.01,2013-03-11 10:49:00,
2013-03-11 06:54:00,33.9,32.9,30.19,ESE,117,0.0,0.0,96,0.00,,---,0.00,VWS V14.01,2013-03-11 10:54:00,
2013-03-11 06:59:00,33.7,32.7,30.19,ESE,117,0.0,0.0,96,0.00,,---,0.00,VWS V14.01,2013-03-11 10:59:00,
2013-03-11 07:00:00,33.4,32.1,30.20,ESE,117,0.0,0.0,95,0.00,,---,0.00,VWS V14.01,2013-03-11 11:00:00,
2013-03-11 07:04:00,33.6,32.6,30.19,ESE,117,0.0,0.0,96,0.00,,---,0.00,VWS V14.01,2013-03-11 11:04:00,
2013-03-11 07:09:00,33.5,32.5,30.19,ESE,117,0.0,0.0,96,0.00,,---,0.00,VWS V14.01,2013-03-11 11:09:00,
2013-03-11 07:14:00,33.4,32.4,30.19,ESE,117,0.0,0.0,96,0.00,,---,0.00,VWS V14.01,2013-03-11 11:14:00,
2013-03-11 07:19:00,33.4,32.4,30.19,ESE,117,0.0,0.0,96,0.00,,---,0.00,VWS V14.01,2013-03-11 11:19:00,
2013-03-11 07:24:00,33.4,32.4,30.19,ESE,117,0.0,0.0,96,0.00,,---,0.00,VWS V14.01,2013-03-11 11:24:00,
2013-03-11 07:29:00,33.4,32.4,30.19,ESE,117,0.0,0.0,96,0.01,,---,0.01,VWS V14.01,2013-03-11 11:29:00,
2013-03-11 07:30:00,33.8,32.8,30.19,ESE,117,0.0,0.0,96,0.00,,---,0.00,VWS V14.01,2013-03-11 11:30:00,
2013-03-11 07:34:00,33.4,32.4,30.20,ESE,117,0.0,0.0,96,0.01,,---,0.01,VWS V14.01,2013-03-11 11:34:00,
2013-03-11 07:39:00,33.4,32.4,30.20,ESE,117,0.0,0.0,96,0.01,,---,0.01,VWS V14.01,2013-03-11 11:39:00,
2013-03-11 07:44:00,33.5,32.5,30.20,ESE,117,0.0,0.0,96,0.01,,---,0.01,VWS V14.01,2013-03-11 11:44:00,
2013-03-11 07:49:00,33.6,32.6,30.20,ESE,117,0.0,0.0,96,0.01,,---,0.01,VWS V14.01,2013-03-11 11:49:00,
2013-03-11 07:54:00,33.7,32.7,30.20,ESE,117,0.0,0.0,96,0.01,,---,0.01,VWS V14.01,2013-03-11 11:54:00,
2013-03-11 07:59:00,33.9,32.9,30.20,ESE,117,0.0,0.0,96,0.01,,---,0.01,VWS V14.01,2013-03-11 11:59:00,
2013-03-11 08:00:00,33.7,32.7,30.19,ESE,117,0.0,0.0,96,0.00,,---,0.00,VWS V14.01,2013-03-11 12:00:00,
2013-03-11 08:04:00,34.3,33.3,30.20,ESE,117,0.0,0.0,96,0.01,,---,0.01,VWS V14.01,2013-03-11 12:04:00,
2013-03-11 08:09:00,34.6,33.6,30.20,ESE,117,0.0,0.0,96,0.01,,---,0.01,VWS V14.01,2013-03-11 12:09:00,
2013-03-11 08:14:00,35.0,34.2,30.20,ESE,117,0.0,0.0,97,0.01,,---,0.01,VWS V14.01,2013-03-11 12:14:00,
2013-03-11 08:19:00,35.4,34.6,30.20,ESE,117,0.0,0.0,97,0.01,,---,0.01,VWS V14.01,2013-03-11 12:19:00,
2013-03-11 08:24:00,36.0,35.2,30.20,ESE,117,0.0,0.0,97,0.01,,---,0.01,VWS V14.01,2013-03-11 12:24:00,
2013-03-11 08:29:00,36.6,35.8,30.20,ESE,117,0.0,0.0,97,0.01,,---,0.01,VWS V14.01,2013-03-11 12:29:00,
2013-03-11 08:30:00,33.4,32.4,30.19,ESE,117,0.0,0.0,96,0.01,,---,0.01,VWS V14.01,2013-03-11 12:30:00,
2013-03-11 08:34:00,37.5,36.7,30.20,ESE,117,0.0,0.0,97,0.00,,---,0.01,VWS V14.01,2013-03-11 12:34:00,
2013-03-11 08:39:00,38.3,37.5,30.20,ESE,117,0.0,0.0,97,0.00,,---,0.01,VWS V14.01,2013-03-11 12:39:00,
2013-03-11 08:44:00,38.8,38.0,30.20,ESE,117,0.0,0.0,97,0.00,,---,0.01,VWS V14.01,2013-03-11 12:44:00,
2013-03-11 08:49:00,39.3,38.5,30.20,ESE,117,0.0,0.0,97,0.00,,---,0.01,VWS V14.01,2013-03-11 12:49:00,
2013-03-11 08:54:00,39.8,39.0,30.20,ESE,117,0.0,0.0,97,0.00,,---,0.01,VWS V14.01,2013-03-11 12:54:00,
2013-03-11 08:59:00,40.6,39.8,30.20,ESE,117,0.0,0.0,97,0.00,,---,0.01,VWS V14.01,2013-03-11 12:59:00,
2013-03-11 09:00:00,34.0,33.0,30.20,ESE,117,0.0,0.0,96,0.01,,---,0.01,VWS V14.01,2013-03-11 13:00:00,
2013-03-11 09:04:00,41.8,41.0,30.20,ESE,117,0.0,0.0,97,0.00,,---,0.01,VWS V14.01,2013-03-11 13:04:00,
2013-03-11 09:09:00,43.2,42.4,30.20,ESE,117,0.0,1.0,97,0.00,,---,0.01,VWS V14.01,2013-03-11 13:09:00,
2013-03-11 09:14:00,44.2,43.4,30.20,ESE,117,0.0,1.0,97,0.00,,---,0.01,VWS V14.01,2013-03-11 13:14:00,
2013-03-11 09:19:00,44.8,44.0,30.20,ESE,118,0.0,2.0,97,0.00,,---,0.01,VWS V14.01,2013-03-11 13:19:00,
2013-03-11 09:24:00,45.1,44.3,30.20,ESE,121,0.0,2.0,97,0.00,,---,0.01,VWS V14.01,2013-03-11 13:24:00,
2013-03-11 09:29:00,45.6,45.1,30.20,ESE,121,0.0,2.0,98,0.00,,---,0.01,VWS V14.01,2013-03-11 13:29:00,
2013-03-11 09:30:00,36.7,35.9,30.20,ESE,117,0.0,0.0,97,0.01,,---,0.01,VWS V14.01,2013-03-11 13:30:00,
2013-03-11 09:34:00,46.1,45.3,30.20,West,267,0.0,3.0,97,0.00,,---,0.01,VWS V14.01,2013-03-11 13:34:00,
2013-03-11 09:39:00,46.5,45.7,30.20,WSW,251,2.0,3.0,97,0.00,,---,0.01,VWS V14.01,2013-03-11 13:39:00,
2013-03-11 09:44:00,46.7,45.9,30.20,WSW,251,0.0,3.0,97,0.00,,---,0.01,VWS V14.01,2013-03-11 13:44:00,
2013-03-11 09:49:00,47.0,46.5,30.20,West,259,0.0,3.0,98,0.00,,---,0.01,VWS V14.01,2013-03-11 13:49:00,
2013-03-11 09:54:00,47.2,46.4,30.20,South,173,1.0,3.0,97,0.00,,---,0.01,VWS V14.01,2013-03-11 13:54:00,
2013-03-11 09:59:00,47.3,46.5,30.20,SE,133,2.0,5.0,97,0.00,,---,0.01,VWS V14.01,2013-03-11 13:59:00,
2013-03-11 10:00:00,40.7,39.9,30.20,ESE,117,0.0,0.0,97,0.00,,---,0.01,VWS V14.01,2013-03-11 14:00:00,
2013-03-11 10:04:00,47.5,47.0,30.20,SSE,151,3.0,5.0,98,0.00,,---,0.01,VWS V14.01,2013-03-11 14:04:00,
2013-03-11 10:09:00,47.5,46.7,30.19,ESE,120,1.0,5.0,97,0.00,,---,0.01,VWS V14.01,2013-03-11 14:09:00,
2013-03-11 10:14:00,47.6,46.8,30.20,SSE,155,0.0,5.0,97,0.00,,---,0.01,VWS V14.01,2013-03-11 14:14:00,
2013-03-11 10:19:00,47.8,47.0,30.20,SSE,148,4.0,6.0,97,0.00,,---,0.01,VWS V14.01,2013-03-11 14:19:00,
2013-03-11 10:24:00,48.0,46.9,30.20,SW,227,1.0,6.0,96,0.00,,---,0.01,VWS V14.01,2013-03-11 14:24:00,
2013-03-11 10:29:00,48.0,46.1,30.20,SSE,147,0.0,6.0,93,0.00,,---,0.01,VWS V14.01,2013-03-11 14:29:00,
2013-03-11 10:30:00,45.7,45.2,30.20,West,261,1.0,2.0,98,0.00,,---,0.01,VWS V14.01,2013-03-11 14:30:00,
2013-03-11 10:34:00,48.3,46.1,30.20,SE,132,0.0,3.0,92,0.00,,---,0.01,VWS V14.01,2013-03-11 14:34:00,
2013-03-11 10:39:00,48.7,46.2,30.20,SE,127,0.0,3.0,91,0.00,,---,0.01,VWS V14.01,2013-03-11 14:39:00,
2013-03-11 10:44:00,49.0,46.2,30.20,SE,146,2.0,3.0,90,0.00,,---,0.01,VWS V14.01,2013-03-11 14:44:00,
2013-03-11 10:49:00,49.2,46.1,30.20,SE,145,2.0,4.0,89,0.00,,---,0.01,VWS V14.01,2013-03-11 14:49:00,
2013-03-11 10:54:00,49.4,46.3,30.20,SE,129,0.0,5.0,89,0.00,,---,0.01,VWS V14.01,2013-03-11 14:54:00,
2013-03-11 10:59:00,49.5,46.4,30.20,SSE,153,3.0,5.0,89,0.00,,---,0.01,VWS V14.01,2013-03-11 14:59:00,
2013-03-11 11:00:00,47.3,46.5,30.20,SE,128,2.0,5.0,97,0.00,,---,0.01,VWS V14.01,2013-03-11 15:00:00,
2013-03-11 11:04:00,49.6,46.2,30.20,SSE,167,1.0,5.0,88,0.00,,---,0.01,VWS V14.01,2013-03-11 15:04:00,
2013-03-11 11:09:00,49.6,46.5,30.19,SSW,194,4.0,6.0,89,0.00,,---,0.01,VWS V14.01,2013-03-11 15:09:00,
2013-03-11 11:14:00,49.9,46.5,30.19,SSE,150,0.0,6.0,88,0.00,,---,0.01,VWS V14.01,2013-03-11 15:14:00,
2013-03-11 11:19:00,50.2,46.8,30.19,SSW,211,1.0,6.0,88,0.00,,---,0.01,VWS V14.01,2013-03-11 15:19:00,
2013-03-11 11:24:00,50.7,47.3,30.19,SSE,157,3.0,6.0,88,0.00,,---,0.01,VWS V14.01,2013-03-11 15:24:00,
2013-03-11 11:29:00,51.0,47.6,30.19,SE,140,2.0,6.0,88,0.00,,---,0.01,VWS V14.01,2013-03-11 15:29:00,
2013-03-11 11:30:00,48.0,46.1,30.20,SSE,147,0.0,6.0,93,0.00,,---,0.01,VWS V14.01,2013-03-11 15:30:00,
2013-03-11 11:34:00,51.2,47.2,30.19,SE,140,0.0,6.0,86,0.00,,---,0.01,VWS V14.01,2013-03-11 15:34:00,
2013-03-11 11:39:00,51.5,47.5,30.19,SW,223,1.0,6.0,86,0.00,,---,0.01,VWS V14.01,2013-03-11 15:39:00,
2013-03-11 11:44:00,51.9,47.8,30.19,East,93,0.0,6.0,86,0.00,,---,0.01,VWS V14.01,2013-03-11 15:44:00,
2013-03-11 11:49:00,52.1,47.7,30.19,East,94,0.0,6.0,85,0.00,,---,0.01,VWS V14.01,2013-03-11 15:49:00,
2013-03-11 11:54:00,52.2,47.5,30.19,ESE,109,0.0,6.0,84,0.00,,---,0.01,VWS V14.01,2013-03-11 15:54:00,
2013-03-11 11:59:00,52.3,47.6,30.18,ESE,111,3.0,6.0,84,0.00,,---,0.01,VWS V14.01,2013-03-11 15:59:00,
2013-03-11 12:00:00,49.5,46.1,30.20,ESE,107,3.0,5.0,88,0.00,,---,0.01,VWS V14.01,2013-03-11 16:00:00,
2013-03-11 12:04:00,52.3,47.6,30.18,ENE,71,2.0,5.0,84,0.00,,---,0.01,VWS V14.01,2013-03-11 16:04:00,
2013-03-11 12:09:00,52.5,47.8,30.18,ENE,63,0.0,5.0,84,0.00,,---,0.01,VWS V14.01,2013-03-11 16:09:00,
2013-03-11 12:14:00,52.4,47.4,30.17,SE,132,3.0,6.0,83,0.00,,---,0.01,VWS V14.01,2013-03-11 16:14:00,
2013-03-11 12:19:00,52.4,47.7,30.18,SE,134,1.0,7.0,84,0.00,,---,0.01,VWS V14.01,2013-03-11 16:19:00,
2013-03-11 12:24:00,52.6,47.9,30.17,East,88,3.0,7.0,84,0.00,,---,0.01,VWS V14.01,2013-03-11 16:24:00,
2013-03-11 12:28:00,52.6,47.9,30.17,South,180,3.0,7.0,84,0.00,,---,0.01,VWS V14.01,2013-03-11 16:28:00,
2013-03-11 12:30:00,51.1,47.4,30.19,SE,136,3.0,6.0,87,0.00,,---,0.01,VWS V14.01,2013-03-11 16:30:00,
2013-03-11 12:33:00,52.8,48.4,30.17,North,350,2.0,5.0,85,0.00,,---,0.01,VWS V14.01,2013-03-11 16:33:00,
2013-03-11 12:38:00,53.0,48.3,30.17,SSW,192,3.0,5.0,84,0.00,,---,0.01,VWS V14.01,2013-03-11 16:38:00,
2013-03-11 12:43:00,53.3,48.0,30.17,SSW,208,1.0,6.0,82,0.00,,---,0.01,VWS V14.01,2013-03-11 16:43:00,
2013-03-11 12:48:00,53.1,47.8,30.17,SSE,165,3.0,7.0,82,0.00,,---,0.01,VWS V14.01,2013-03-11 16:48:00,
2013-03-11 12:53:00,52.8,47.8,30.17,South,173,3.0,7.0,83,0.00,,---,0.01,VWS V14.01,2013-03-11 16:53:00,
2013-03-11 12:58:00,52.7,47.7,30.17,SE,143,5.0,7.0,83,0.00,,---,0.01,VWS V14.01,2013-03-11 16:58:00,
2013-03-11 13:00:00,52.4,47.7,30.18,East,83,5.0,6.0,84,0.00,,---,0.01,VWS V14.01,2013-03-11 17:00:00,
2013-03-11 13:03:00,52.7,47.7,30.16,ESE,108,2.0,2.0,83,0.00,,---,0.01,VWS V14.01,2013-03-11 17:03:00,
2013-03-11 13:09:00,52.7,47.7,30.16,SE,138,1.0,4.0,83,0.00,,---,0.01,VWS V14.01,2013-03-11 17:09:00,
2013-03-11 13:14:00,52.7,47.7,30.16,South,169,0.0,6.0,83,0.00,,---,0.01,VWS V14.01,2013-03-11 17:14:00,
2013-03-11 13:19:00,53.0,47.7,30.16,South,187,2.0,7.0,82,0.00,,---,0.01,VWS V14.01,2013-03-11 17:19:00,
2013-03-11 13:24:00,52.8,47.5,30.16,SSE,163,1.0,7.0,82,0.00,,---,0.01,VWS V14.01,2013-03-11 17:24:00,
2013-03-11 13:29:00,52.9,47.9,30.16,SE,138,1.0,7.0,83,0.00,,---,0.01,VWS V14.01,2013-03-11 17:29:00,
2013-03-11 13:30:00,52.6,47.9,30.17,SE,126,2.0,7.0,84,0.00,,---,0.01,VWS V14.01,2013-03-11 17:30:00,
2013-03-11 13:34:00,52.7,47.7,30.16,SSW,212,2.0,6.0,83,0.00,,---,0.01,VWS V14.01,2013-03-11 17:34:00,
2013-03-11 13:39:00,52.9,48.2,30.15,WSW,242,2.0,6.0,84,0.00,,---,0.01,VWS V14.01,2013-03-11 17:39:00,
2013-03-11 13:44:00,53.0,48.0,30.15,NE,39,1.0,6.0,83,0.00,,---,0.01,VWS V14.01,2013-03-11 17:44:00,
2013-03-11 13:49:00,53.0,48.0,30.15,ENE,74,3.0,6.0,83,0.00,,---,0.01,VWS V14.01,2013-03-11 17:49:00,
2013-03-11 13:54:00,52.7,48.0,30.15,SE,146,0.0,6.0,84,0.00,,---,0.01,VWS V14.01,2013-03-11 17:54:00,
2013-03-11 13:59:00,53.0,48.3,30.15,ESE,103,2.0,6.0,84,0.00,,---,0.01,VWS V14.01,2013-03-11 17:59:00,
2013-03-11 14:00:00,52.6,47.6,30.17,SSW,212,2.0,7.0,83,0.00,,---,0.01,VWS V14.01,2013-03-11 18:00:00,
2013-03-11 14:04:00,52.9,47.9,30.14,SSE,153,2.0,5.0,83,0.00,,---,0.01,VWS V14.01,2013-03-11 18:04:00,
2013-03-11 14:09:00,52.8,47.8,30.14,SSE,157,0.0,5.0,83,0.00,,---,0.01,VWS V14.01,2013-03-11 18:09:00,
2013-03-11 14:14:00,52.9,47.9,30.13,South,170,1.0,6.0,83,0.00,,---,0.01,VWS V14.01,2013-03-11 18:14:00,
2013-03-11 14:19:00,53.3,48.6,30.13,ESE,108,0.0,6.0,84,0.00,,---,0.01,VWS V14.01,2013-03-11 18:19:00,
2013-03-11 14:24:00,53.7,48.3,30.13,SSW,198,2.0,6.0,82,0.00,,---,0.01,VWS V14.01,2013-03-11 18:24:00,
2013-03-11 14:29:00,53.7,48.3,30.13,SSE,147,4.0,6.0,82,0.00,,---,0.01,VWS V14.01,2013-03-11 18:29:00,
2013-03-11 14:30:00,52.8,47.8,30.16,SW,223,5.0,7.0,83,0.00,,---,0.01,VWS V14.01,2013-03-11 18:30:00,
2013-03-11 14:34:00,53.4,48.4,30.12,ESE,121,1.0,7.0,83,0.00,,---,0.01,VWS V14.01,2013-03-11 18:34:00,
2013-03-11 14:39:00,53.5,48.5,30.12,SSE,149,3.0,7.0,83,0.00,,---,0.01,VWS V14.01,2013-03-11 18:39:00,
2013-03-11 14:44:00,53.3,48.3,30.12,SSE,167,3.0,7.0,83,0.00,,---,0.01,VWS V14.01,2013-03-11 18:44:00,
2013-03-11 14:49:00,53.1,48.1,30.12,South,182,1.0,7.0,83,0.00,,---,0.01,VWS V14.01,2013-03-11 18:49:00,
2013-03-11 14:54:00,53.1,48.1,30.12,SSE,167,1.0,7.0,83,0.00,,---,0.01,VWS V14.01,2013-03-11 18:54:00,
2013-03-11 14:59:00,53.2,48.5,30.12,NW,306,0.0,7.0,84,0.00,,---,0.01,VWS V14.01,2013-03-11 18:59:00,
2013-03-11 15:00:00,52.9,48.2,30.15,SSE,153,4.0,6.0,84,0.00,,---,0.01,VWS V14.01,2013-03-11 19:00:00,
2013-03-11 15:04:00,53.2,48.5,30.12,SE,138,1.0,3.0,84,0.00,,---,0.01,VWS V14.01,2013-03-11 19:04:00,
2013-03-11 15:09:00,53.2,48.5,30.12,SSW,196,3.0,3.0,84,0.00,,---,0.01,VWS V14.01,2013-03-11 19:09:00,
2013-03-11 15:14:00,52.8,48.1,30.11,SSE,154,3.0,5.0,84,0.00,,---,0.01,VWS V14.01,2013-03-11 19:14:00,
2013-03-11 15:19:00,52.6,48.2,30.11,SSE,165,2.0,6.0,85,0.00,,---,0.01,VWS V14.01,2013-03-11 19:19:00,
2013-03-11 15:24:00,52.7,48.3,30.11,South,173,2.0,6.0,85,0.00,,---,0.01,VWS V14.01,2013-03-11 19:24:00,
2013-03-11 15:29:00,52.8,48.4,30.11,SE,134,4.0,6.0,85,0.00,,---,0.01,VWS V14.01,2013-03-11 19:29:00,
2013-03-11 15:30:00,53.7,48.3,30.13,East,97,3.0,6.0,82,0.00,,---,0.01,VWS V14.01,2013-03-11 19:30:00,
2013-03-11 15:34:00,52.9,48.5,30.11,South,179,1.0,5.0,85,0.00,,---,0.01,VWS V14.01,2013-03-11 19:34:00,
2013-03-11 15:39:00,53.0,48.9,30.11,ENE,71,2.0,5.0,86,0.00,,---,0.01,VWS V14.01,2013-03-11 19:39:00,
2013-03-11 15:44:00,52.9,48.5,30.11,WSW,252,1.0,5.0,85,0.00,,---,0.01,VWS V14.01,2013-03-11 19:44:00,
2013-03-11 15:49:00,53.0,48.9,30.11,South,188,0.0,5.0,86,0.00,,---,0.01,VWS V14.01,2013-03-11 19:49:00,
2013-03-11 15:54:00,53.0,48.9,30.11,SE,134,0.0,5.0,86,0.00,,---,0.01,VWS V14.01,2013-03-11 19:54:00,
2013-03-11 15:59:00,53.0,48.9,30.11,South,171,0.0,5.0,86,0.00,,---,0.01,VWS V14.01,2013-03-11 19:59:00,
2013-03-11 16:00:00,53.2,48.5,30.12,ENE,75,3.0,7.0,84,0.00,,---,0.01,VWS V14.01,2013-03-11 20:00:00,
2013-03-11 16:04:00,53.0,48.9,30.11,South,187,3.0,5.0,86,0.00,,---,0.01,VWS V14.01,2013-03-11 20:04:00,
2013-03-11 16:09:00,52.8,48.7,30.11,SE,128,1.0,5.0,86,0.00,,---,0.01,VWS V14.01,2013-03-11 20:09:00,
2013-03-11 16:14:00,52.6,48.5,30.11,NW,319,2.0,8.0,86,0.00,,---,0.01,VWS V14.01,2013-03-11 20:14:00,
2013-03-11 16:19:00,52.5,48.8,30.11,SSE,149,0.0,8.0,87,0.00,,---,0.01,VWS V14.01,2013-03-11 20:19:00,
2013-03-11 16:24:00,52.6,48.8,30.11,South,186,4.0,8.0,87,0.00,,---,0.01,VWS V14.01,2013-03-11 20:24:00,
2013-03-11 16:29:00,52.9,49.1,30.10,South,179,2.0,8.0,87,0.00,,---,0.01,VWS V14.01,2013-03-11 20:29:00,
2013-03-11 16:30:00,52.8,48.7,30.11,South,177,0.0,6.0,86,0.00,,---,0.01,VWS V14.01,2013-03-11 20:30:00,
2013-03-11 16:34:00,53.0,49.2,30.10,South,180,3.0,4.0,87,0.00,,---,0.01,VWS V14.01,2013-03-11 20:34:00,
2013-03-11 16:39:00,52.9,48.8,30.10,SSE,165,2.0,5.0,86,0.00,,---,0.01,VWS V14.01,2013-03-11 20:39:00,
2013-03-11 16:44:00,52.7,48.6,30.10,WSW,247,1.0,5.0,86,0.00,,---,0.01,VWS V14.01,2013-03-11 20:44:00,
2013-03-11 16:49:00,52.6,48.8,30.10,SE,126,2.0,5.0,87,0.00,,---,0.01,VWS V14.01,2013-03-11 20:49:00,
2013-03-11 16:54:00,52.3,48.5,30.09,ENE,76,0.0,5.0,87,0.00,,---,0.01,VWS V14.01,2013-03-11 20:54:00,
2013-03-11 16:59:00,52.1,48.4,30.09,ESE,102,0.0,5.0,87,0.00,,---,0.01,VWS V14.01,2013-03-11 20:59:00,
2013-03-11 17:00:00,53.1,49.0,30.11,ESE,107,3.0,5.0,86,0.00,,---,0.01,VWS V14.01,2013-03-11 21:00:00,
2013-03-11 17:04:00,51.8,48.1,30.09,SE,145,1.0,4.0,87,0.00,,---,0.01,VWS V14.01,2013-03-11 21:04:00,
2013-03-11 17:09:00,51.7,48.3,30.09,South,178,0.0,4.0,88,0.00,,---,0.01,VWS V14.01,2013-03-11 21:09:00,
2013-03-11 17:14:00,51.4,48.0,30.09,SW,221,0.0,6.0,88,0.00,,---,0.01,VWS V14.01,2013-03-11 21:14:00,
2013-03-11 17:19:00,51.3,47.9,30.09,South,173,1.0,6.0,88,0.00,,---,0.01,VWS V14.01,2013-03-11 21:19:00,
2013-03-11 17:24:00,51.1,47.7,30.08,SSE,163,0.0,6.0,88,0.00,,---,0.01,VWS V14.01,2013-03-11 21:24:00,
2013-03-11 17:28:00,50.9,47.5,30.08,SSE,158,1.0,6.0,88,0.00,,---,0.01,VWS V14.01,2013-03-11 21:28:00,
2013-03-11 17:30:00,52.9,49.1,30.10,South,178,3.0,8.0,87,0.00,,---,0.01,VWS V14.01,2013-03-11 21:30:00,
2013-03-11 17:33:00,50.6,47.2,30.08,SE,127,0.0,3.0,88,0.00,,---,0.01,VWS V14.01,2013-03-11 21:33:00,
2013-03-11 17:38:00,50.5,47.1,30.08,SE,127,0.0,3.0,88,0.00,,---,0.01,VWS V14.01,2013-03-11 21:38:00,
2013-03-11 17:44:00,50.1,46.7,30.08,SE,130,0.0,3.0,88,0.00,,---,0.01,VWS V14.01,2013-03-11 21:44:00,
2013-03-11 17:49:00,49.8,46.7,30.08,SE,128,1.0,3.0,89,0.00,,---,0.01,VWS V14.01,2013-03-11 21:49:00,
2013-03-11 17:54:00,49.5,46.7,30.08,SE,128,2.0,3.0,90,0.00,,---,0.01,VWS V14.01,2013-03-11 21:54:00,
2013-03-11 17:59:00,49.2,46.4,30.08,South,175,0.0,3.0,90,0.00,,---,0.01,VWS V14.01,2013-03-11 21:59:00,
2013-03-11 18:00:00,52.1,48.4,30.09,ESE,102,0.0,5.0,87,0.00,,---,0.01,VWS V14.01,2013-03-11 22:00:00,
2013-03-11 18:04:00,49.1,46.3,30.08,South,175,0.0,1.0,90,0.00,,---,0.01,VWS V14.01,2013-03-11 22:04:00,
2013-03-11 18:09:00,49.0,46.2,30.07,South,175,0.0,2.0,90,0.00,,---,0.01,VWS V14.01,2013-03-11 22:09:00,
2013-03-11 18:14:00,48.8,46.0,30.07,South,175,1.0,2.0,90,0.00,,---,0.01,VWS V14.01,2013-03-11 22:14:00,
2013-03-11 18:19:00,48.6,46.1,30.07,SSE,161,0.0,3.0,91,0.00,,---,0.01,VWS V14.01,2013-03-11 22:19:00,
2013-03-11 18:24:00,48.5,46.0,30.07,SSE,161,1.0,3.0,91,0.00,,---,0.01,VWS V14.01,2013-03-11 22:24:00,
2013-03-11 18:29:00,48.3,45.8,30.07,SSE,161,0.0,3.0,91,0.00,,---,0.01,VWS V14.01,2013-03-11 22:29:00,
2013-03-11 18:30:00,50.8,47.4,30.08,SSE,158,0.0,6.0,88,0.00,,---,0.01,VWS V14.01,2013-03-11 22:30:00,
2013-03-11 18:34:00,48.3,46.1,30.07,SSE,161,0.0,0.0,92,0.00,,---,0.01,VWS V14.01,2013-03-11 22:34:00,
2013-03-11 18:39:00,48.3,46.1,30.07,SSE,162,0.0,2.0,92,0.00,,---,0.01,VWS V14.01,2013-03-11 22:39:00,
2013-03-11 18:44:00,48.2,46.0,30.07,SSE,155,0.0,3.0,92,0.00,,---,0.01,VWS V14.01,2013-03-11 22:44:00,
2013-03-11 18:49:00,48.3,46.1,30.07,SSE,155,0.0,3.0,92,0.00,,---,0.01,VWS V14.01,2013-03-11 22:49:00,
2013-03-11 18:54:00,48.3,46.4,30.07,SSE,155,0.0,3.0,93,0.00,,---,0.01,VWS V14.01,2013-03-11 22:54:00,
2013-03-11 18:59:00,48.3,46.4,30.07,SSE,157,0.0,3.0,93,0.00,,---,0.01,VWS V14.01,2013-03-11 22:59:00,
2013-03-11 19:00:00,49.2,46.4,30.08,South,175,0.0,3.0,90,0.00,,---,0.01,VWS V14.01,2013-03-11 23:00:00,
2013-03-11 19:04:00,48.3,46.4,30.07,SSE,151,0.0,4.0,93,0.00,,---,0.01,VWS V14.01,2013-03-11 23:04:00,
2013-03-11 19:09:00,48.3,46.4,30.07,SW,230,6.0,6.0,93,0.00,,---,0.01,VWS V14.01,2013-03-11 23:09:00,
2013-03-11 19:14:00,48.4,46.8,30.07,SE,132,4.0,6.0,94,0.00,,---,0.01,VWS V14.01,2013-03-11 23:14:00,
2013-03-11 19:19:00,48.4,46.8,30.07,SW,236,1.0,6.0,94,0.00,,---,0.01,VWS V14.01,2013-03-11 23:19:00,
2013-03-11 19:24:00,48.5,46.9,30.07,NE,42,0.0,6.0,94,0.00,,---,0.01,VWS V14.01,2013-03-11 23:24:00,
2013-03-11 19:29:00,48.4,46.8,30.07,SSW,206,2.0,6.0,94,0.00,,---,0.01,VWS V14.01,2013-03-11 23:29:00,
2013-03-11 19:30:00,48.3,45.8,30.07,SSE,161,0.0,3.0,91,0.00,,---,0.01,VWS V14.01,2013-03-11 23:30:00,
2013-03-11 19:34:00,48.4,46.8,30.08,WSW,243,0.0,2.0,94,0.00,,---,0.01,VWS V14.01,2013-03-11 23:34:00,
2013-03-11 19:39:00,48.3,46.7,30.08,WSW,237,0.0,3.0,94,0.00,,---,0.01,VWS V14.01,2013-03-11 23:39:00,
2013-03-11 19:44:00,48.2,46.6,30.08,WSW,237,0.0,3.0,94,0.00,,---,0.01,VWS V14.01,2013-03-11 23:44:00,
2013-03-11 19:49:00,48.0,46.1,30.08,WSW,242,1.0,3.0,93,0.00,,---,0.01,VWS V14.01,2013-03-11 23:49:00,
2013-03-11 19:53:00,47.9,46.3,30.08,WSW,242,0.0,3.0,94,0.00,,---,0.01,VWS V14.01,2013-03-11 23:53:00,
2013-03-11 19:58:00,47.9,46.3,30.08,SE,138,1.0,3.0,94,0.00,,---,0.01,VWS V14.01,2013-03-11 23:58:00,
2013-03-11 20:00:00,48.3,46.4,30.07,SSE,160,1.0,4.0,93,0.00,,---,0.01,VWS V14.01,2013-03-12 00:00:00,
2013-03-11 20:03:00,47.8,46.2,30.08,West,267,1.0,5.0,94,0.00,,---,0.01,VWS V14.01,2013-03-12 00:03:00,
2013-03-11 20:08:00,47.8,46.2,30.08,NNE,17,0.0,5.0,94,0.00,,---,0.01,VWS V14.01,2013-03-12 00:08:00,
2013-03-11 20:13:00,47.8,46.2,30.08,West,259,3.0,5.0,94,0.00,,---,0.01,VWS V14.01,2013-03-12 00:13:00,
2013-03-11 20:18:00,47.8,46.2,30.08,SW,214,1.0,5.0,94,0.00,,---,0.01,VWS V14.01,2013-03-12 00:18:00,
2013-03-11 20:23:00,47.8,46.4,30.08,SW,220,0.0,5.0,95,0.00,,---,0.01,VWS V14.01,2013-03-12 00:23:00,
2013-03-11 20:28:00,47.8,46.4,30.07,West,268,3.0,5.0,95,0.00,,---,0.01,VWS V14.01,2013-03-12 00:28:00,
2013-03-11 20:30:00,48.4,46.8,30.07,WSW,243,1.0,6.0,94,0.00,,---,0.01,VWS V14.01,2013-03-12 00:30:00,
2013-03-11 20:33:00,47.9,46.5,30.06,SE,126,2.0,4.0,95,0.00,,---,0.01,VWS V14.01,2013-03-12 00:33:00,
2013-03-11 20:38:00,48.0,46.6,30.07,NNW,347,0.0,4.0,95,0.00,,---,0.01,VWS V14.01,2013-03-12 00:38:00,
2013-03-11 20:43:00,48.1,46.7,30.07,WSW,255,3.0,8.0,95,0.00,,---,0.01,VWS V14.01,2013-03-12 00:43:00,
2013-03-11 20:48:00,48.1,46.7,30.06,NW,326,1.0,8.0,95,0.00,,---,0.01,VWS V14.01,2013-03-12 00:48:00,
2013-03-11 20:54:00,48.3,46.9,30.06,SW,226,5.0,8.0,95,0.00,,---,0.01,VWS V14.01,2013-03-12 00:54:00,
2013-03-11 20:59:00,48.5,47.1,30.05,WSW,246,2.0,8.0,95,0.00,,---,0.01,VWS V14.01,2013-03-12 00:59:00,
2013-03-11 21:00:00,47.9,46.3,30.08,SE,138,0.0,3.0,94,0.00,,---,0.01,VWS V14.01,2013-03-12 01:00:00,
2013-03-11 21:04:00,48.6,47.2,30.06,SSE,153,3.0,10.0,95,0.00,,---,0.01,VWS V14.01,2013-03-12 01:04:00,
2013-03-11 21:09:00,48.6,47.2,30.06,North,5,0.0,10.0,95,0.00,,---,0.01,VWS V14.01,2013-03-12 01:09:00,
2013-03-11 21:14:00,48.6,47.2,30.06,WNW,297,4.0,10.0,95,0.00,,---,0.01,VWS V14.01,2013-03-12 01:14:00,
2013-03-11 21:19:00,48.6,47.2,30.06,East,88,1.0,10.0,95,0.00,,---,0.01,VWS V14.01,2013-03-12 01:19:00,
2013-03-11 21:24:00,48.7,47.3,30.06,ENE,61,3.0,10.0,95,0.00,,---,0.01,VWS V14.01,2013-03-12 01:24:00,
2013-03-11 21:29:00,48.7,47.3,30.06,West,275,3.0,10.0,95,0.00,,---,0.01,VWS V14.01,2013-03-12 01:29:00,
2013-03-11 21:30:00,47.8,46.4,30.07,SSE,161,1.0,5.0,95,0.00,,---,0.01,VWS V14.01,2013-03-12 01:30:00,
2013-03-11 21:34:00,48.7,47.3,30.06,SSW,198,0.0,7.0,95,0.00,,---,0.01,VWS V14.01,2013-03-12 01:34:00,
2013-03-11 21:39:00,48.7,47.3,30.06,NE,44,2.0,7.0,95,0.00,,---,0.01,VWS V14.01,2013-03-12 01:39:00,
2013-03-11 21:44:00,48.7,47.3,30.05,North,5,0.0,9.0,95,0.00,,---,0.01,VWS V14.01,2013-03-12 01:44:00,
2013-03-11 21:49:00,48.8,47.4,30.05,ESE,104,2.0,10.0,95,0.00,,---,0.01,VWS V14.01,2013-03-12 01:49:00,
2013-03-11 21:54:00,48.9,47.5,30.05,East,100,2.0,10.0,95,0.00,,---,0.01,VWS V14.01,2013-03-12 01:54:00,
2013-03-11 21:59:00,49.1,47.7,30.04,SE,128,4.0,10.0,95,0.00,,---,0.01,VWS V14.01,2013-03-12 01:59:00,
2013-03-11 22:00:00,48.5,47.1,30.05,ENE,77,2.0,8.0,95,0.00,,---,0.01,VWS V14.01,2013-03-12 02:00:00,
2013-03-11 22:04:00,49.2,47.8,30.04,South,173,4.0,7.0,95,0.00,,---,0.01,VWS V14.01,2013-03-12 02:04:00,
2013-03-11 22:09:00,49.3,47.9,30.04,ENE,67,1.0,8.0,95,0.00,,---,0.01,VWS V14.01,2013-03-12 02:09:00,
2013-03-11 22:14:00,49.3,47.9,30.04,NNW,330,2.0,10.0,95,0.00,,---,0.01,VWS V14.01,2013-03-12 02:14:00,
2013-03-11 22:19:00,49.2,47.5,30.04,NNE,15,3.0,10.0,94,0.00,,---,0.01,VWS V14.01,2013-03-12 02:19:00,
2013-03-11 22:23:00,49.2,47.5,30.04,SSE,159,4.0,10.0,94,0.00,,---,0.01,VWS V14.01,2013-03-12 02:23:00,
2013-03-11 22:28:00,49.2,47.5,30.03,South,182,2.0,10.0,94,0.00,,---,0.01,VWS V14.01,2013-03-12 02:28:00,
2013-03-11 22:30:00,48.7,47.3,30.06,NNE,18,0.0,10.0,95,0.00,,---,0.01,VWS V14.01,2013-03-12 02:30:00,
2013-03-11 22:33:00,49.2,47.5,30.03,WNW,293,4.0,10.0,94,0.00,,---,0.01,VWS V14.01,2013-03-12 02:33:00,
2013-03-11 22:38:00,49.2,47.5,30.04,SW,236,4.0,10.0,94,0.00,,---,0.01,VWS V14.01,2013-03-12 02:38:00,
2013-03-11 22:43:00,49.2,47.5,30.04,SSE,148,4.0,10.0,94,0.00,,---,0.01,VWS V14.01,2013-03-12 02:43:00,
2013-03-11 22:48:00,49.3,47.7,30.04,SE,128,7.0,10.0,94,0.00,,---,0.01,VWS V14.01,2013-03-12 02:48:00,
2013-03-11 22:53:00,49.3,47.7,30.06,WSW,246,2.0,10.0,94,0.00,,---,0.01,VWS V14.01,2013-03-12 02:53:00,
2013-03-11 22:58:00,49.3,47.7,30.06,East,96,2.0,10.0,94,0.00,,---,0.01,VWS V14.01,2013-03-12 02:58:00,
2013-03-11 23:00:00,49.1,47.7,30.04,South,187,4.0,10.0,95,0.00,,---,0.01,VWS V14.01,2013-03-12 03:00:00,
2013-03-11 23:03:00,49.2,47.5,30.06,SW,230,0.0,5.0,94,0.00,,---,0.01,VWS V14.01,2013-03-12 03:03:00,
2013-03-11 23:08:00,49.2,47.5,30.05,South,173,2.0,11.0,94,0.00,,---,0.01,VWS V14.01,2013-03-12 03:08:00,
2013-03-11 23:13:00,49.2,47.5,30.05,SW,229,2.0,11.0,94,0.00,,---,0.01,VWS V14.01,2013-03-12 03:13:00,
2013-03-11 23:18:00,49.2,47.5,30.05,NE,42,1.0,11.0,94,0.00,,---,0.01,VWS V14.01,2013-03-12 03:18:00,
2013-03-11 23:23:00,49.2,47.5,30.05,East,91,2.0,11.0,94,0.00,,---,0.01,VWS V14.01,2013-03-12 03:23:00,
2013-03-11 23:28:00,49.3,47.4,30.05,West,259,2.0,11.0,93,0.00,,---,0.01,VWS V14.01,2013-03-12 03:28:00,
2013-03-11 23:30:00,49.2,47.5,30.03,SW,222,5.0,10.0,94,0.00,,---,0.01,VWS V14.01,2013-03-12 03:30:00,
2013-03-11 23:33:00,49.3,47.4,30.04,NW,322,1.0,7.0,93,0.00,,---,0.01,VWS V14.01,2013-03-12 03:33:00,
2013-03-11 23:38:00,49.3,47.4,30.04,South,179,2.0,8.0,93,0.00,,---,0.01,VWS V14.01,2013-03-12 03:38:00,
2013-03-11 23:43:00,49.3,47.4,30.05,SSE,154,0.0,8.0,93,0.00,,---,0.01,VWS V14.01,2013-03-12 03:43:00,
2013-03-11 23:48:00,49.2,47.3,30.04,North,350,0.0,8.0,93,0.00,,---,0.01,VWS V14.01,2013-03-12 03:48:00,
2013-03-11 23:53:00,49.2,47.3,30.04,ENE,77,1.0,8.0,93,0.00,,---,0.01,VWS V14.01,2013-03-12 03:53:00,
2013-03-11 23:58:00,49.1,47.2,30.04,South,178,1.0,8.0,93,0.00,,---,0.01,VWS V14.01,2013-03-12 03:58:00,